Time;durP1;ratioP1;P1;durP2;ratioP2;P2;SDS_P1;SDS_P2;PMS_P1;PMS_P2;Temp;Humidity;BMP_temperature;BMP_pressure;BME280_temperature;BME280_humidity;BME280_pressure;Samples;Min_cycle;Max_cycle;Signal;HPM_P1;HPM_P2
2022/11/15 00:01:55;;;;;;;8.27;5.63;;;11.00;99.90;;;;;;7390092;19;20223;-79
2022/11/15 00:04:20;;;;;;;5.93;3.50;;;11.00;99.90;;;;;;7389805;19;20485;-77
2022/11/15 00:06:46;;;;;;;5.60;2.77;;;11.10;99.90;;;;;;7390955;19;20142;-79
2022/11/15 00:09:12;;;;;;;4.47;3.00;;;11.00;99.90;;;;;;7388634;19;20134;-80
2022/11/15 00:11:37;;;;;;;5.17;2.80;;;10.80;99.90;;;;;;7391167;19;20491;-79
2022/11/15 00:14:03;;;;;;;3.17;2.50;;;10.80;99.90;;;;;;7389427;19;20143;-78
2022/11/15 00:16:29;;;;;;;4.87;2.83;;;10.90;99.90;;;;;;7388446;19;20142;-79
2022/11/15 00:18:54;;;;;;;6.00;3.67;;;10.90;99.90;;;;;;7388022;19;20605;-79
2022/11/15 00:21:20;;;;;;;5.63;3.50;;;10.80;99.90;;;;;;7388482;19;20138;-77
2022/11/15 00:23:46;;;;;;;6.93;2.90;;;10.90;99.90;;;;;;7387711;19;20174;-79
2022/11/15 00:26:13;;;;;;;4.60;2.97;;;10.80;99.90;;;;;;7388134;19;20946;-78
2022/11/15 00:28:40;;;;;;;3.33;2.50;;;10.60;99.90;;;;;;7389692;19;20143;-77
2022/11/15 00:31:13;;;;;;;3.37;2.40;;;10.70;99.90;;;;;;7388779;19;20143;-80
2022/11/15 00:33:38;;;;;;;3.10;2.10;;;10.90;99.90;;;;;;7388663;19;20746;-80
2022/11/15 00:36:08;;;;;;;3.30;2.30;;;10.80;99.90;;;;;;7389193;19;20159;-79
2022/11/15 00:38:36;;;;;;;4.13;2.77;;;10.90;99.90;;;;;;7389739;19;20158;-79
2022/11/15 00:41:03;;;;;;;3.40;2.20;;;10.90;99.90;;;;;;7390988;19;20135;-80
2022/11/15 00:43:29;;;;;;;4.40;2.30;;;10.70;99.90;;;;;;7389604;19;20139;-79
2022/11/15 00:45:55;;;;;;;2.57;1.77;;;10.70;99.90;;;;;;7391417;19;20494;-77
2022/11/15 00:48:21;;;;;;;3.07;1.80;;;10.50;99.90;;;;;;7390058;19;20135;-78
2022/11/15 00:50:48;;;;;;;2.27;1.87;;;10.60;99.90;;;;;;7389502;19;20134;-76
2022/11/15 00:53:14;;;;;;;3.33;2.30;;;10.40;99.90;;;;;;7388656;19;20202;-79
2022/11/15 00:55:39;;;;;;;4.00;2.27;;;10.30;99.90;;;;;;7387190;19;20138;-79
2022/11/15 00:58:05;;;;;;;4.37;2.10;;;10.20;99.90;;;;;;7386165;19;20704;-78
2022/11/15 01:00:31;;;;;;;2.83;2.17;;;10.20;99.90;;;;;;7387296;19;20171;-80
2022/11/15 01:02:57;;;;;;;3.63;2.07;;;10.10;99.90;;;;;;7388670;19;20143;-79
2022/11/15 01:05:22;;;;;;;2.53;1.70;;;10.20;99.90;;;;;;7386066;19;20134;-80
2022/11/15 01:07:55;;;;;;;2.20;1.83;;;10.10;99.90;;;;;;7390027;19;20145;-77
2022/11/15 01:10:21;;;;;;;1.50;1.40;;;10.20;99.90;;;;;;7389474;19;20161;-79
2022/11/15 01:12:47;;;;;;;4.27;1.60;;;10.20;99.90;;;;;;7392133;19;20779;-80
2022/11/15 01:15:13;;;;;;;6.43;2.33;;;10.20;99.90;;;;;;7390779;19;20151;-80
2022/11/15 01:17:39;;;;;;;3.77;2.07;;;10.30;99.90;;;;;;7390019;19;20135;-79
2022/11/15 01:20:05;;;;;;;2.27;1.80;;;10.60;99.90;;;;;;7389489;19;20629;-79
2022/11/15 01:22:40;;;;;;;2.73;2.13;;;10.70;99.90;;;;;;7388102;19;20173;-78
2022/11/15 01:25:06;;;;;;;3.47;2.00;;;10.90;99.90;;;;;;7385135;19;20153;-80
2022/11/15 01:27:32;;;;;;;2.00;1.67;;;10.70;99.90;;;;;;7389780;19;20143;-81
2022/11/15 01:29:57;;;;;;;4.43;2.07;;;10.80;99.90;;;;;;7389712;19;20142;-78
2022/11/15 01:32:23;;;;;;;2.50;1.87;;;10.90;99.90;;;;;;7387383;19;20146;-78
2022/11/15 01:34:49;;;;;;;3.83;2.27;;;11.00;99.90;;;;;;7389274;19;20226;-79
2022/11/15 01:37:14;;;;;;;3.37;2.10;;;11.00;99.90;;;;;;7388820;19;20135;-78
2022/11/15 01:39:40;;;;;;;2.73;1.97;;;10.70;99.90;;;;;;7385652;19;20616;-79
2022/11/15 01:42:08;;;;;;;3.07;2.13;;;10.70;99.90;;;;;;7388635;19;20225;-78
2022/11/15 01:44:34;;;;;;;10.40;2.00;;;10.40;99.90;;;;;;7387534;19;20159;-78
2022/11/15 01:47:21;;;;;;;3.50;2.10;;;10.40;99.90;;;;;;7387859;19;20143;-79
2022/11/15 01:50:04;;;;;;;5.60;2.57;;;10.40;99.90;;;;;;7387153;19;20163;-79
2022/11/15 01:52:33;;;;;;;5.47;2.30;;;10.40;99.90;;;;;;7388803;19;20215;-78
2022/11/15 01:55:09;;;;;;;3.93;2.03;;;10.20;99.90;;;;;;7388480;19;20150;-77
2022/11/15 01:57:35;;;;;;;3.03;2.10;;;9.90;99.90;;;;;;7386875;19;20874;-78
2022/11/15 02:00:04;;;;;;;3.83;2.23;;;9.90;99.90;;;;;;7387692;19;20789;-79
2022/11/15 02:02:30;;;;;;;3.47;1.93;;;10.00;99.90;;;;;;7386307;19;20130;-78
2022/11/15 02:04:56;;;;;;;3.10;1.90;;;9.90;99.90;;;;;;7386135;19;20141;-79
2022/11/15 02:07:23;;;;;;;2.57;1.87;;;10.00;99.90;;;;;;7386832;19;20139;-79
2022/11/15 02:09:49;;;;;;;3.03;2.00;;;10.10;99.90;;;;;;7384592;19;20238;-78
2022/11/15 02:12:19;;;;;;;3.57;2.10;;;10.20;99.90;;;;;;7387848;19;20158;-78
2022/11/15 02:14:48;;;;;;;3.00;2.07;;;10.20;99.90;;;;;;7388507;19;20145;-78
2022/11/15 02:17:26;;;;;;;3.30;2.10;;;10.30;99.90;;;;;;7384120;19;20146;-78
2022/11/15 02:20:00;;;;;;;5.40;1.93;;;10.60;99.90;;;;;;7388156;19;20138;-78
2022/11/15 02:22:44;;;;;;;3.63;1.87;;;10.70;99.90;;;;;;7385300;19;20133;-79
2022/11/15 02:26:00;;;;;;;5.97;2.20;;;10.70;99.90;;;;;;7383537;19;20169;-79
2022/11/15 02:28:44;;;;;;;3.27;1.97;;;10.70;99.90;;;;;;7382949;19;20135;-78
2022/11/15 02:31:35;;;;;;;3.17;2.00;;;10.60;99.90;;;;;;7387824;19;20222;-76
2022/11/15 02:34:15;;;;;;;3.13;2.20;;;10.70;99.90;;;;;;7385961;19;20532;-79
2022/11/15 02:37:09;;;;;;;4.03;2.37;;;10.80;99.90;;;;;;7388816;19;20733;-78
2022/11/15 02:39:48;;;;;;;2.50;1.87;;;10.80;99.90;;;;;;7388339;19;20123;-79
2022/11/15 02:45:28;;;;;;;3.17;2.07;;;10.90;99.90;;;;;;7394605;19;20145;-79
2022/11/15 02:47:57;;;;;;;2.70;1.83;;;10.90;99.90;;;;;;7387271;19;20141;-78
2022/11/15 02:50:27;;;;;;;2.37;1.93;;;10.90;99.90;;;;;;7397300;19;20158;-78
2022/11/15 02:52:53;;;;;;;8.50;2.43;;;10.90;99.90;;;;;;7393761;19;20138;-77
2022/11/15 02:55:32;;;;;;;6.87;2.40;;;10.90;99.90;;;;;;7393210;19;20154;-79
2022/11/15 02:58:22;;;;;;;3.03;2.20;;;10.80;99.90;;;;;;7393339;19;20506;-79
2022/11/15 03:01:11;;;;;;;2.47;2.10;;;10.80;99.90;;;;;;7396271;19;20146;-79
2022/11/15 03:03:39;;;;;;;3.13;1.93;;;10.70;99.90;;;;;;7393768;19;20148;-78
2022/11/15 03:06:08;;;;;;;3.70;2.40;;;10.70;99.90;;;;;;7391708;19;20143;-78
2022/11/15 03:08:39;;;;;;;5.33;2.33;;;10.80;99.90;;;;;;7391831;19;20471;-79
2022/11/15 03:11:20;;;;;;;4.23;2.70;;;10.80;99.90;;;;;;7392928;19;20170;-77
2022/11/15 03:14:02;;;;;;;3.83;2.70;;;10.80;99.90;;;;;;7390967;19;20489;-78
2022/11/15 03:16:37;;;;;;;4.57;2.20;;;10.70;99.90;;;;;;7394069;19;20600;-79
2022/11/15 03:19:11;;;;;;;4.40;1.80;;;10.70;99.90;;;;;;7390961;19;20233;-78
2022/11/15 03:21:40;;;;;;;2.57;1.80;;;10.60;99.90;;;;;;7393797;19;20126;-78
2022/11/15 03:24:07;;;;;;;3.33;2.27;;;10.70;99.90;;;;;;7389822;19;20143;-78
2022/11/15 03:26:35;;;;;;;4.13;2.13;;;10.60;99.90;;;;;;7392485;19;20596;-79
2022/11/15 03:29:10;;;;;;;4.63;2.20;;;10.60;99.90;;;;;;7392251;19;20767;-77
2022/11/15 03:31:48;;;;;;;3.23;2.10;;;10.60;99.90;;;;;;7391767;19;20511;-78
2022/11/15 03:34:31;;;;;;;4.00;1.90;;;10.60;99.90;;;;;;7394059;19;20134;-78
2022/11/15 03:36:57;;;;;;;3.57;2.10;;;10.60;99.90;;;;;;7391904;19;20135;-79
2022/11/15 03:39:24;;;;;;;3.17;1.87;;;10.60;99.90;;;;;;7393650;19;20910;-78
2022/11/15 03:42:00;;;;;;;5.17;2.10;;;10.60;99.90;;;;;;7394128;19;20919;-78
2022/11/15 03:44:51;;;;;;;3.00;2.10;;;10.30;99.90;;;;;;7388662;19;20573;-78
2022/11/15 03:47:23;;;;;;;2.97;2.00;;;10.20;99.90;;;;;;7391978;19;20137;-79
2022/11/15 03:49:53;;;;;;;3.13;2.10;;;10.50;99.90;;;;;;7389783;19;20231;-81
2022/11/15 03:52:21;;;;;;;2.67;1.70;;;10.50;99.90;;;;;;7389698;19;20147;-73
2022/11/15 03:54:52;;;;;;;1.87;1.50;;;10.50;99.90;;;;;;7389106;19;20243;-74
2022/11/15 03:57:18;;;;;;;2.53;1.90;;;10.50;99.90;;;;;;7389744;19;20151;-73
2022/11/15 03:59:44;;;;;;;3.27;1.80;;;10.60;99.90;;;;;;7392904;19;20143;-73
2022/11/15 04:02:10;;;;;;;3.00;1.70;;;10.40;99.90;;;;;;7391666;19;20156;-73
2022/11/15 04:04:35;;;;;;;3.00;1.93;;;10.60;99.90;;;;;;7391349;19;20169;-73
2022/11/15 04:07:01;;;;;;;2.57;2.23;;;10.50;99.90;;;;;;7389756;19;20600;-72
2022/11/15 04:09:27;;;;;;;3.80;2.57;;;10.60;99.90;;;;;;7391459;19;20226;-72
2022/11/15 04:11:53;;;;;;;2.80;2.50;;;10.60;99.90;;;;;;7390997;19;20227;-73
2022/11/15 04:14:18;;;;;;;3.17;2.50;;;10.60;99.90;;;;;;7389591;19;20904;-72
2022/11/15 04:16:44;;;;;;;5.27;3.00;;;10.60;99.90;;;;;;7389715;19;20142;-72
2022/11/15 04:24:38;;;;;;;4.27;2.70;;;10.60;99.90;;;;;;7389492;19;20149;-72
2022/11/15 04:27:04;;;;;;;4.27;3.00;;;10.50;99.90;;;;;;7388792;19;20143;-73
2022/11/15 04:29:36;;;;;;;4.17;2.80;;;10.50;99.90;;;;;;7391236;19;20161;-72
2022/11/15 04:32:03;;;;;;;2.93;2.13;;;10.50;99.90;;;;;;7388538;19;20169;-73
2022/11/15 04:34:29;;;;;;;4.33;2.20;;;10.50;99.90;;;;;;7390386;19;20184;-72
2022/11/15 04:37:13;;;;;;;2.83;2.13;;;10.50;99.90;;;;;;7391271;19;20146;-74
2022/11/15 04:39:43;;;;;;;6.97;2.80;;;10.60;99.90;;;;;;7389716;19;20549;-73
2022/11/15 04:42:09;;;;;;;6.00;2.00;;;10.50;99.90;;;;;;7390390;19;20213;-72
2022/11/15 04:44:35;;;;;;;4.03;2.30;;;10.50;99.90;;;;;;7390107;19;20138;-76
2022/11/15 04:47:01;;;;;;;2.10;1.87;;;10.50;99.90;;;;;;7390192;19;20138;-73
2022/11/15 04:49:27;;;;;;;2.90;1.87;;;10.30;99.90;;;;;;7390833;19;20616;-72
2022/11/15 04:51:53;;;;;;;4.90;1.77;;;10.20;99.90;;;;;;7388320;19;20142;-72
2022/11/15 04:54:19;;;;;;;3.10;2.10;;;10.00;99.90;;;;;;7390629;19;20833;-74
2022/11/15 04:56:45;;;;;;;3.10;2.07;;;10.30;99.90;;;;;;7386229;19;20157;-74
2022/11/15 04:59:11;;;;;;;4.03;2.07;;;10.20;99.90;;;;;;7385711;19;20195;-73
2022/11/15 05:01:36;;;;;;;3.30;2.10;;;10.20;99.90;;;;;;7384328;19;20143;-72
2022/11/15 05:04:20;;;;;;;2.10;1.70;;;10.10;99.90;;;;;;7385908;19;20142;-72
2022/11/15 05:06:47;;;;;;;2.03;1.53;;;10.30;99.90;;;;;;7389711;19;20210;-73
2022/11/15 05:09:13;;;;;;;2.77;1.80;;;10.20;99.90;;;;;;7390505;19;20168;-72
2022/11/15 05:11:39;;;;;;;2.03;1.80;;;10.20;99.90;;;;;;7388360;19;20142;-74
2022/11/15 05:14:05;;;;;;;3.63;2.00;;;10.20;99.90;;;;;;7387415;19;20130;-72
2022/11/15 05:16:31;;;;;;;2.43;1.90;;;10.30;99.90;;;;;;7385948;19;20146;-73
2022/11/15 05:18:57;;;;;;;3.57;1.90;;;10.40;99.90;;;;;;7389328;19;20134;-73
2022/11/15 05:21:22;;;;;;;3.23;2.10;;;10.30;99.90;;;;;;7388042;19;20188;-74
2022/11/15 05:23:48;;;;;;;4.30;1.90;;;10.10;99.90;;;;;;7387041;19;20488;-74
2022/11/15 05:26:18;;;;;;;1.97;1.70;;;10.30;99.90;;;;;;7388581;19;20138;-73
2022/11/15 05:28:44;;;;;;;3.57;2.40;;;10.50;99.90;;;;;;7386344;19;20188;-73
2022/11/15 05:31:12;;;;;;;3.33;1.93;;;10.40;99.90;;;;;;7388459;19;20233;-72
2022/11/15 05:33:40;;;;;;;5.70;2.17;;;10.40;99.90;;;;;;7385852;19;20213;-73
2022/11/15 05:36:26;;;;;;;3.10;1.80;;;10.40;99.90;;;;;;7385221;19;20169;-74
2022/11/15 05:38:52;;;;;;;4.70;2.20;;;10.40;99.90;;;;;;7382291;19;20150;-73
2022/11/15 05:41:20;;;;;;;1.90;1.60;;;10.00;99.90;;;;;;7383418;19;20138;-73
2022/11/15 05:43:48;;;;;;;2.90;1.90;;;9.90;99.90;;;;;;7383240;19;20139;-73
2022/11/15 05:46:14;;;;;;;3.77;2.17;;;10.00;99.90;;;;;;7385312;19;20135;-73
2022/11/15 05:48:44;;;;;;;3.93;2.50;;;10.10;99.90;;;;;;7382452;19;20159;-72
2022/11/15 05:51:12;;;;;;;3.90;2.40;;;10.30;99.90;;;;;;7385112;19;20524;-73
2022/11/15 05:53:38;;;;;;;4.43;2.77;;;10.40;99.90;;;;;;7384657;19;20130;-73
2022/11/15 05:56:06;;;;;;;6.70;4.00;;;10.40;99.90;;;;;;7379421;19;20126;-73
2022/11/15 05:58:33;;;;;;;5.40;3.77;;;10.40;99.90;;;;;;7382394;19;20821;-73
2022/11/15 06:00:59;;;;;;;6.73;3.33;;;10.40;99.90;;;;;;7388255;19;20168;-72
2022/11/15 06:03:25;;;;;;;5.37;3.27;;;10.40;99.90;;;;;;7387940;19;20169;-72
2022/11/15 06:05:51;;;;;;;5.53;3.27;;;10.40;99.90;;;;;;7386154;19;20480;-72
2022/11/15 06:08:18;;;;;;;4.67;3.17;;;10.10;99.90;;;;;;7384388;19;20171;-71
2022/11/15 06:10:43;;;;;;;5.03;3.53;;;10.30;99.90;;;;;;7386285;19;20183;-72
2022/11/15 06:13:09;;;;;;;4.93;3.43;;;10.30;99.90;;;;;;7386036;19;20174;-73
2022/11/15 06:15:35;;;;;;;7.63;3.73;;;10.40;99.90;;;;;;7385235;19;20608;-73
2022/11/15 06:18:01;;;;;;;4.90;3.40;;;10.40;99.90;;;;;;7382226;19;20180;-72
2022/11/15 06:20:28;;;;;;;6.73;3.57;;;10.40;99.90;;;;;;7385586;19;20908;-72
2022/11/15 06:23:03;;;;;;;3.90;2.93;;;10.40;99.90;;;;;;7385546;19;20589;-73
2022/11/15 06:25:30;;;;;;;4.97;2.50;;;10.30;99.90;;;;;;7383589;19;20651;-72
2022/11/15 06:27:57;;;;;;;5.07;3.33;;;9.90;99.90;;;;;;7386029;19;20912;-73
2022/11/15 06:30:25;;;;;;;7.77;4.17;;;10.10;99.90;;;;;;7384358;19;20138;-73
2022/11/15 06:32:51;;;;;;;5.20;3.67;;;10.30;99.90;;;;;;7386781;19;20143;-72
2022/11/15 06:35:17;;;;;;;3.63;2.70;;;10.30;99.90;;;;;;7387223;19;20166;-71
2022/11/15 06:37:43;;;;;;;3.40;2.53;;;10.10;99.90;;;;;;7383763;19;20252;-72
2022/11/15 06:40:10;;;;;;;4.17;2.60;;;10.00;99.90;;;;;;7385631;19;20155;-72
2022/11/15 06:42:35;;;;;;;3.53;2.33;;;9.90;99.90;;;;;;7388725;19;20142;-72
2022/11/15 06:45:02;;;;;;;3.63;2.30;;;10.10;99.90;;;;;;7384450;19;20155;-72
2022/11/15 06:47:28;;;;;;;8.73;2.53;;;9.90;99.90;;;;;;7386462;19;20150;-72
2022/11/15 06:49:53;;;;;;;4.77;2.63;;;10.00;99.90;;;;;;7387610;19;20264;-72
2022/11/15 06:52:19;;;;;;;5.43;3.73;;;10.00;99.90;;;;;;7382391;19;20656;-72
2022/11/15 06:54:45;;;;;;;5.27;2.80;;;10.10;99.90;;;;;;7384457;19;20131;-72
2022/11/15 06:57:11;;;;;;;4.13;2.23;;;10.10;99.90;;;;;;7380590;19;20524;-73
2022/11/15 06:59:37;;;;;;;3.77;2.20;;;9.90;99.90;;;;;;7384155;19;20173;-72
2022/11/15 07:02:03;;;;;;;3.73;2.10;;;10.10;99.90;;;;;;7383593;19;20130;-73
2022/11/15 07:04:29;;;;;;;9.67;5.10;;;10.10;99.90;;;;;;7383633;19;20145;-74
2022/11/15 07:06:54;;;;;;;6.57;3.83;;;10.30;99.90;;;;;;7384644;19;20142;-72
2022/11/15 07:09:20;;;;;;;7.47;3.17;;;10.10;99.90;;;;;;7388629;19;20139;-74
2022/11/15 07:11:46;;;;;;;7.23;3.17;;;10.10;99.90;;;;;;7383630;19;20317;-73
2022/11/15 07:14:12;;;;;;;8.50;3.90;;;10.50;99.90;;;;;;7384478;19;20143;-73
2022/11/15 07:16:37;;;;;;;5.77;2.97;;;10.20;99.90;;;;;;7382228;19;20135;-73
2022/11/15 07:19:03;;;;;;;4.40;3.03;;;10.30;99.90;;;;;;7384641;19;20134;-72
2022/11/15 07:21:29;;;;;;;6.80;4.10;;;10.40;99.90;;;;;;7382773;19;20142;-74
2022/11/15 07:23:55;;;;;;;4.17;2.63;;;10.30;99.90;;;;;;7382271;19;20135;-74
2022/11/15 07:26:21;;;;;;;4.53;2.50;;;10.20;99.90;;;;;;7381695;19;20133;-72
2022/11/15 07:28:47;;;;;;;3.93;2.30;;;10.20;99.90;;;;;;7380757;19;20135;-72
2022/11/15 07:31:12;;;;;;;4.27;3.00;;;10.20;99.90;;;;;;7389098;19;20146;-73
2022/11/15 07:33:38;;;;;;;6.90;3.37;;;10.40;99.90;;;;;;7389633;19;20765;-76
2022/11/15 07:36:06;;;;;;;3.57;2.40;;;10.60;99.90;;;;;;7392666;19;20141;-72
2022/11/15 07:38:33;;;;;;;3.73;1.90;;;10.70;99.90;;;;;;7389683;19;20119;-73
2022/11/15 07:41:34;;;;;;;17.10;10.70;;;10.80;99.90;;;;;;7391273;19;20130;-72
2022/11/15 07:44:01;;;;;;;5.43;2.90;;;10.80;99.90;;;;;;7388684;19;20134;-74
2022/11/15 07:46:27;;;;;;;4.07;2.70;;;10.90;99.90;;;;;;7389384;19;20138;-73
2022/11/15 07:48:54;;;;;;;6.30;2.73;;;10.90;99.90;;;;;;7392180;19;20156;-74
2022/11/15 07:51:20;;;;;;;5.30;2.90;;;11.00;99.90;;;;;;7390971;19;20139;-73
2022/11/15 07:53:46;;;;;;;3.63;2.77;;;11.10;99.90;;;;;;7391309;19;20625;-72
2022/11/15 07:56:12;;;;;;;5.87;3.20;;;11.20;99.90;;;;;;7393475;19;20142;-72
2022/11/15 07:58:38;;;;;;;6.23;4.00;;;11.40;99.90;;;;;;7385208;19;20151;-73
2022/11/15 08:01:05;;;;;;;6.37;3.97;;;11.60;99.90;;;;;;7385354;19;20157;-73
2022/11/15 08:03:33;;;;;;;7.33;4.17;;;11.70;99.90;;;;;;7394459;19;20134;-73
2022/11/15 08:05:59;;;;;;;8.37;4.20;;;11.70;99.90;;;;;;7393358;19;20830;-73
2022/11/15 08:08:25;;;;;;;13.50;4.60;;;11.70;99.90;;;;;;7394646;19;20139;-74
2022/11/15 08:10:51;;;;;;;5.33;3.73;;;11.60;99.90;;;;;;7394480;19;20219;-73
2022/11/15 08:13:17;;;;;;;8.73;4.10;;;11.60;99.90;;;;;;7393725;19;20131;-73
2022/11/15 08:15:43;;;;;;;8.10;5.17;;;11.70;99.90;;;;;;7394368;19;20203;-73
2022/11/15 08:18:13;;;;;;;8.40;4.37;;;11.70;99.90;;;;;;7391647;19;20202;-72
2022/11/15 08:20:39;;;;;;;9.63;3.90;;;11.70;99.90;;;;;;7393951;19;20146;-73
2022/11/15 08:23:05;;;;;;;7.90;4.93;;;11.70;99.90;;;;;;7395383;19;20145;-72
2022/11/15 08:25:33;;;;;;;6.40;4.20;;;11.80;99.90;;;;;;7392061;19;20533;-74
2022/11/15 08:28:01;;;;;;;7.13;4.07;;;11.90;99.90;;;;;;7392510;19;20163;-73
2022/11/15 08:30:27;;;;;;;6.83;4.50;;;11.80;99.90;;;;;;7394362;19;20139;-73
2022/11/15 08:32:55;;;;;;;8.73;5.03;;;11.80;99.90;;;;;;7389020;19;20146;-74
2022/11/15 08:35:21;;;;;;;8.77;3.77;;;11.80;99.90;;;;;;7385746;19;20273;-74
2022/11/15 08:37:47;;;;;;;7.30;3.70;;;11.80;99.90;;;;;;7391321;19;20177;-72
2022/11/15 08:40:14;;;;;;;8.90;4.63;;;11.80;99.90;;;;;;7386672;19;20582;-73
2022/11/15 08:42:40;;;;;;;9.37;4.13;;;11.70;99.90;;;;;;7388705;19;20218;-73
2022/11/15 08:45:07;;;;;;;7.47;4.60;;;11.80;99.90;;;;;;7387537;19;20142;-73
2022/11/15 08:47:33;;;;;;;6.93;4.20;;;11.70;99.90;;;;;;7384635;19;20561;-72
2022/11/15 08:49:59;;;;;;;5.60;3.63;;;11.80;99.90;;;;;;7384337;19;20152;-72
2022/11/15 08:52:25;;;;;;;10.23;4.00;;;11.70;99.90;;;;;;7385073;19;20708;-73
2022/11/15 08:54:51;;;;;;;7.97;3.77;;;11.80;99.90;;;;;;7385822;19;20145;-72
2022/11/15 08:57:17;;;;;;;7.00;3.90;;;11.80;99.90;;;;;;7384998;19;20542;-72
2022/11/15 08:59:42;;;;;;;5.53;3.80;;;11.80;99.90;;;;;;7390752;19;20171;-73
2022/11/15 09:02:15;;;;;;;6.43;3.60;;;11.90;99.90;;;;;;7387278;19;20135;-72
2022/11/15 09:04:42;;;;;;;5.83;3.70;;;11.90;99.90;;;;;;7385183;19;20641;-74
2022/11/15 09:07:11;;;;;;;6.00;4.23;;;11.90;99.90;;;;;;7385540;19;20150;-73
2022/11/15 09:09:37;;;;;;;4.27;3.70;;;12.00;99.90;;;;;;7386415;19;20138;-73
2022/11/15 09:12:04;;;;;;;7.70;3.47;;;12.20;99.90;;;;;;7388281;19;20142;-72
2022/11/15 09:14:30;;;;;;;5.87;3.90;;;12.30;99.90;;;;;;7387946;19;20138;-73
2022/11/15 09:16:56;;;;;;;5.57;3.40;;;12.40;99.90;;;;;;7385614;19;20553;-73
2022/11/15 09:19:22;;;;;;;5.50;3.53;;;12.50;99.90;;;;;;7385384;19;20139;-72
2022/11/15 09:21:47;;;;;;;5.27;3.17;;;12.50;99.90;;;;;;7384994;19;20131;-72
2022/11/15 09:24:13;;;;;;;4.63;3.27;;;12.50;99.90;;;;;;7383198;19;20652;-74
2022/11/15 09:26:39;;;;;;;6.53;3.67;;;12.50;99.90;;;;;;7385167;19;20485;-73
2022/11/15 09:29:05;;;;;;;6.53;3.83;;;12.60;99.90;;;;;;7386442;19;20138;-73
2022/11/15 09:31:31;;;;;;;6.60;3.93;;;12.70;99.90;;;;;;7386480;19;20175;-73
2022/11/15 09:33:57;;;;;;;6.37;3.63;;;12.70;99.90;;;;;;7384885;19;20184;-75
2022/11/15 09:36:22;;;;;;;6.20;3.60;;;12.70;99.90;;;;;;7386005;19;20158;-73
2022/11/15 09:38:48;;;;;;;6.03;3.23;;;12.80;99.90;;;;;;7383806;19;20142;-71
2022/11/15 09:41:14;;;;;;;5.78;3.80;;;12.80;99.90;;;;;;7385392;19;20146;-75
2022/11/15 09:43:48;;;;;;;5.90;3.73;;;13.10;99.90;;;;;;7382959;19;20150;-73
2022/11/15 09:46:17;;;;;;;5.27;3.13;;;13.10;99.90;;;;;;7383440;19;20178;-76
2022/11/15 09:49:02;;;;;;;6.17;3.10;;;13.10;99.90;;;;;;7385209;19;20135;-72
2022/11/15 09:51:34;;;;;;;5.10;3.10;;;13.10;99.90;;;;;;7385667;19;20164;-72
2022/11/15 09:54:27;;;;;;;4.47;2.70;;;13.10;99.90;;;;;;7384748;19;20146;-73
2022/11/15 09:56:55;;;;;;;5.30;3.20;;;13.20;99.90;;;;;;7382798;19;20170;-73
2022/11/15 09:59:45;;;;;;;5.43;2.80;;;13.30;99.90;;;;;;7384916;19;20130;-72
2022/11/15 10:02:51;;;;;;;3.47;2.90;;;13.20;99.90;;;;;;7387662;19;20141;-73
2022/11/15 10:05:22;;;;;;;5.83;3.80;;;13.30;99.90;;;;;;7386114;19;20217;-73
2022/11/15 10:08:25;;;;;;;6.03;3.60;;;13.40;99.90;;;;;;7385270;19;20168;-72
2022/11/15 10:11:01;;;;;;;7.68;3.58;;;13.50;99.90;;;;;;7383885;19;20149;-73
2022/11/15 10:13:32;;;;;;;5.80;3.63;;;13.50;99.90;;;;;;7385177;19;20734;-71
2022/11/15 10:16:16;;;;;;;7.47;3.80;;;13.50;99.90;;;;;;7386613;19;20130;-76
2022/11/15 10:19:22;;;;;;;5.88;3.40;;;13.60;99.90;;;;;;7383635;19;20135;-72
2022/11/15 10:21:53;;;;;;;7.67;3.97;;;13.60;99.90;;;;;;7385032;19;20145;-72
2022/11/15 10:24:28;;;;;;;6.43;4.00;;;13.50;99.90;;;;;;7383284;19;20154;-73
2022/11/15 10:26:55;;;;;;;5.22;3.67;;;13.50;99.90;;;;;;7384365;19;20138;-72
2022/11/15 10:29:22;;;;;;;5.90;3.28;;;13.50;99.90;;;;;;7385650;19;20131;-73
2022/11/15 10:31:48;;;;;;;5.53;3.20;;;13.70;99.90;;;;;;7382379;19;20163;-74
2022/11/15 10:34:18;;;;;;;5.60;3.33;;;13.60;99.90;;;;;;7384494;19;20138;-72
2022/11/15 10:36:46;;;;;;;4.40;3.20;;;13.60;99.90;;;;;;7381584;19;20573;-72
2022/11/15 10:39:13;;;;;;;5.40;3.38;;;13.70;99.90;;;;;;7384015;19;20483;-73
2022/11/15 10:41:41;;;;;;;5.70;3.40;;;13.70;99.90;;;;;;7383140;19;20691;-73
2022/11/15 10:44:12;;;;;;;7.10;3.20;;;13.60;99.90;;;;;;7384267;19;20135;-72
2022/11/15 10:46:40;;;;;;;8.40;3.58;;;13.60;99.90;;;;;;7385657;19;20649;-74
2022/11/15 10:49:14;;;;;;;7.13;3.97;;;13.60;99.90;;;;;;7384828;19;20175;-74
2022/11/15 10:51:56;;;;;;;7.00;3.67;;;13.50;99.90;;;;;;7384381;19;20142;-74
2022/11/15 10:54:46;;;;;;;5.65;3.40;;;13.50;99.90;;;;;;7383857;19;20146;-72
2022/11/15 10:57:18;;;;;;;5.37;3.70;;;13.60;99.90;;;;;;7385506;19;20155;-72
2022/11/15 10:59:52;;;;;;;6.45;3.45;;;13.70;99.90;;;;;;7382095;19;20161;-72
2022/11/15 11:02:32;;;;;;;5.95;3.50;;;13.60;99.90;;;;;;7383389;19;20151;-73
2022/11/15 11:04:59;;;;;;;6.85;3.60;;;13.50;99.90;;;;;;7387316;19;20497;-73
2022/11/15 11:07:36;;;;;;;8.10;3.38;;;13.40;99.90;;;;;;7387260;19;20159;-73
2022/11/15 11:10:19;;;;;;;6.40;3.38;;;13.40;99.90;;;;;;7388941;19;20608;-73
2022/11/15 11:12:44;;;;;;;6.75;3.83;;;13.30;99.90;;;;;;7388394;19;20143;-72
2022/11/15 11:15:13;;;;;;;5.93;3.25;;;13.10;99.90;;;;;;7392335;19;20143;-73
2022/11/15 11:18:15;;;;;;;6.57;3.60;;;13.20;99.90;;;;;;7391044;19;20607;-73
2022/11/15 11:20:53;;;;;;;6.80;3.53;;;13.20;99.90;;;;;;7390094;19;20162;-73
2022/11/15 11:23:40;;;;;;;6.88;3.38;;;13.20;99.90;;;;;;7391147;19;20514;-72
2022/11/15 11:26:28;;;;;;;5.30;3.58;;;13.20;99.90;;;;;;7393447;19;20143;-74
2022/11/15 11:29:12;;;;;;;8.40;3.47;;;13.30;99.90;;;;;;7389213;19;20154;-73
2022/11/15 11:32:07;;;;;;;8.15;3.78;;;13.50;99.90;;;;;;7389364;19;20460;-72
2022/11/15 11:34:59;;;;;;;5.63;3.63;;;13.70;99.90;;;;;;7391646;19;20161;-73
2022/11/15 11:37:54;;;;;;;9.27;4.50;;;13.60;99.90;;;;;;7387480;19;20151;-73
2022/11/15 11:40:30;;;;;;;6.85;4.30;;;13.50;99.90;;;;;;7387021;19;20548;-73
2022/11/15 11:43:17;;;;;;;9.48;4.70;;;13.70;99.90;;;;;;7388537;19;20506;-73
2022/11/15 11:46:17;;;;;;;7.75;3.90;;;13.70;99.90;;;;;;7387451;19;20143;-73
2022/11/15 11:48:46;;;;;;;5.70;3.70;;;13.70;99.90;;;;;;7386016;19;20549;-74
2022/11/15 11:51:28;;;;;;;6.85;4.03;;;13.80;99.90;;;;;;7390061;19;20150;-73
2022/11/15 11:53:58;;;;;;;5.53;3.70;;;14.00;99.90;;;;;;7387980;19;20139;-74
2022/11/15 11:56:37;;;;;;;7.63;3.72;;;14.00;99.90;;;;;;7390529;19;20213;-73
2022/11/15 11:59:19;;;;;;;4.93;3.78;;;13.90;99.90;;;;;;7387523;19;20141;-73
2022/11/15 12:01:45;;;;;;;6.10;3.50;;;13.90;99.90;;;;;;7389634;19;20148;-73
2022/11/15 12:04:14;;;;;;;5.95;3.38;;;13.90;99.90;;;;;;7389793;19;20588;-73
2022/11/15 12:06:53;;;;;;;6.07;4.38;;;13.90;99.90;;;;;;7387786;19;20157;-75
2022/11/15 12:09:51;;;;;;;5.57;3.85;;;13.80;99.90;;;;;;7387202;19;20126;-73
2022/11/15 12:12:39;;;;;;;5.57;3.53;;;13.90;99.90;;;;;;7393401;19;20123;-72
2022/11/15 12:15:47;;;;;;;6.30;3.20;;;14.00;99.90;;;;;;7389727;19;20138;-74
2022/11/15 12:18:15;;;;;;;5.95;2.97;;;14.00;99.90;;;;;;7383967;19;20139;-73
2022/11/15 12:20:58;;;;;;;4.70;2.63;;;14.10;99.90;;;;;;7391894;19;20179;-71
2022/11/15 12:23:32;;;;;;;3.55;2.42;;;14.10;99.90;;;;;;7393244;19;20127;-75
2022/11/15 12:26:05;;;;;;;3.10;2.80;;;14.00;99.90;;;;;;7388648;19;20130;-73
2022/11/15 12:29:01;;;;;;;4.32;2.40;;;14.10;99.90;;;;;;7388850;19;20138;-73
2022/11/15 12:31:41;;;;;;;4.90;2.70;;;14.00;99.90;;;;;;7389603;19;20152;-73
2022/11/15 12:34:22;;;;;;;5.70;2.80;;;14.00;99.90;;;;;;7388357;19;20461;-73
2022/11/15 12:36:49;;;;;;;7.53;2.80;;;14.00;99.90;;;;;;7384941;19;20189;-74
2022/11/15 12:39:17;;;;;;;9.27;4.50;;;14.00;99.90;;;;;;7387897;19;20149;-72
2022/11/15 12:41:56;;;;;;;5.05;3.42;;;14.00;99.90;;;;;;7387882;19;20159;-75
2022/11/15 12:44:30;;;;;;;5.30;2.50;;;14.00;99.90;;;;;;7386362;19;20508;-74
2022/11/15 12:46:56;;;;;;;5.53;3.60;;;14.00;99.90;;;;;;7385291;19;20154;-73
2022/11/15 12:49:28;;;;;;;6.93;3.58;;;14.10;99.90;;;;;;7386999;19;20175;-73
2022/11/15 12:51:59;;;;;;;4.45;2.90;;;14.10;99.90;;;;;;7387342;19;20517;-73
2022/11/15 12:54:27;;;;;;;5.50;3.00;;;14.00;99.90;;;;;;7390381;19;20135;-73
2022/11/15 12:57:07;;;;;;;3.30;2.63;;;14.00;99.90;;;;;;7384718;19;20181;-74
2022/11/15 12:59:54;;;;;;;7.25;3.58;;;14.00;99.90;;;;;;7389204;19;20663;-73
2022/11/15 13:02:23;;;;;;;6.47;3.80;;;14.00;99.90;;;;;;7386850;19;20153;-73
2022/11/15 13:04:50;;;;;;;3.67;2.95;;;14.20;99.90;;;;;;7384342;19;20215;-74
2022/11/15 13:07:34;;;;;;;5.60;3.42;;;14.20;99.90;;;;;;7385545;19;20194;-73
2022/11/15 13:10:20;;;;;;;6.85;3.00;;;14.10;99.90;;;;;;7386521;19;20173;-73
2022/11/15 13:12:46;;;;;;;5.72;2.40;;;14.10;99.90;;;;;;7386908;19;20167;-72
2022/11/15 13:15:12;;;;;;;4.03;2.40;;;14.10;99.90;;;;;;7386021;19;20229;-74
2022/11/15 13:17:43;;;;;;;7.00;2.90;;;14.10;99.90;;;;;;7387424;19;20138;-73